sensor_id;sensor_type;location;lat;lon;timestamp;pressure;altitude;pressure_sealevel;temperature;humidity
68107;BME280;54892;47.488;19.026;2022-10-28T00:01:41;101441.03;;;13.17;92.22
68107;BME280;54892;47.488;19.026;2022-10-28T00:04:44;101437.81;;;13.15;91.97
68107;BME280;54892;47.488;19.026;2022-10-28T00:07:49;101431.84;;;13.08;92.15
68107;BME280;54892;47.488;19.026;2022-10-28T00:11:00;101436.91;;;13.09;92.11
68107;BME280;54892;47.488;19.026;2022-10-28T00:14:05;101430.25;;;13.07;92.35
68107;BME280;54892;47.488;19.026;2022-10-28T00:17:09;101430.25;;;13.07;92.40
68107;BME280;54892;47.488;19.026;2022-10-28T00:20:13;101426.91;;;13.00;92.75
68107;BME280;54892;47.488;19.026;2022-10-28T00:23:18;101430.72;;;13.04;92.59
68107;BME280;54892;47.488;19.026;2022-10-28T00:26:23;101432.97;;;13.12;92.26
68107;BME280;54892;47.488;19.026;2022-10-28T00:29:27;101436.34;;;13.07;92.28
68107;BME280;54892;47.488;19.026;2022-10-28T00:32:30;101433.72;;;12.95;92.71
68107;BME280;54892;47.488;19.026;2022-10-28T00:35:34;101436.44;;;12.84;93.23
68107;BME280;54892;47.488;19.026;2022-10-28T00:38:41;101432.50;;;12.74;93.70
68107;BME280;54892;47.488;19.026;2022-10-28T00:41:45;101434.69;;;12.89;92.96
68107;BME280;54892;47.488;19.026;2022-10-28T00:44:53;101432.81;;;12.90;92.92
68107;BME280;54892;47.488;19.026;2022-10-28T00:47:58;101425.91;;;12.89;93.05
68107;BME280;54892;47.488;19.026;2022-10-28T00:51:03;101432.81;;;12.90;92.85
68107;BME280;54892;47.488;19.026;2022-10-28T00:54:07;101426.47;;;12.91;92.69
68107;BME280;54892;47.488;19.026;2022-10-28T00:57:14;101427.31;;;12.91;92.65
68107;BME280;54892;47.488;19.026;2022-10-28T01:00:19;101426.03;;;12.82;93.08
68107;BME280;54892;47.488;19.026;2022-10-28T01:03:22;101422.66;;;12.99;92.39
68107;BME280;54892;47.488;19.026;2022-10-28T01:06:26;101422.22;;;12.90;92.63
68107;BME280;54892;47.488;19.026;2022-10-28T01:09:32;101421.66;;;12.88;92.61
68107;BME280;54892;47.488;19.026;2022-10-28T01:12:43;101433.41;;;12.92;92.54
68107;BME280;54892;47.488;19.026;2022-10-28T01:15:55;101426.59;;;12.96;92.42
68107;BME280;54892;47.488;19.026;2022-10-28T01:19:34;101414.38;;;12.95;92.39
68107;BME280;54892;47.488;19.026;2022-10-28T01:22:46;101424.72;;;12.97;92.24
68107;BME280;54892;47.488;19.026;2022-10-28T01:26:18;101416.91;;;12.90;92.00
68107;BME280;54892;47.488;19.026;2022-10-28T01:33:08;101410.41;;;12.81;92.64
68107;BME280;54892;47.488;19.026;2022-10-28T01:36:19;101410.84;;;12.89;92.31
68107;BME280;54892;47.488;19.026;2022-10-28T01:39:32;101405.03;;;12.92;92.16
68107;BME280;54892;47.488;19.026;2022-10-28T01:42:41;101420.03;;;12.87;92.30
68107;BME280;54892;47.488;19.026;2022-10-28T01:45:51;101409.56;;;12.80;92.82
68107;BME280;54892;47.488;19.026;2022-10-28T01:49:02;101412.59;;;12.72;92.95
68107;BME280;54892;47.488;19.026;2022-10-28T01:52:11;101411.09;;;12.76;92.79
68107;BME280;54892;47.488;19.026;2022-10-28T01:55:18;101408.66;;;12.74;92.83
68107;BME280;54892;47.488;19.026;2022-10-28T01:58:27;101407.78;;;12.69;93.43
68107;BME280;54892;47.488;19.026;2022-10-28T02:01:32;101399.13;;;12.73;93.26
68107;BME280;54892;47.488;19.026;2022-10-28T02:04:37;101408.53;;;12.81;92.95
68107;BME280;54892;47.488;19.026;2022-10-28T02:07:41;101402.19;;;12.82;92.59
68107;BME280;54892;47.488;19.026;2022-10-28T02:10:50;101400.91;;;12.85;92.49
68107;BME280;54892;47.488;19.026;2022-10-28T02:14:06;101404.53;;;12.78;92.66
68107;BME280;54892;47.488;19.026;2022-10-28T02:17:19;101399.34;;;12.84;92.19
68107;BME280;54892;47.488;19.026;2022-10-28T02:20:32;101400.16;;;13.01;91.04
68107;BME280;54892;47.488;19.026;2022-10-28T02:23:41;101398.84;;;12.87;91.91
68107;BME280;54892;47.488;19.026;2022-10-28T02:26:51;101398.22;;;12.68;92.76
68107;BME280;54892;47.488;19.026;2022-10-28T02:30:01;101396.47;;;12.61;93.02
68107;BME280;54892;47.488;19.026;2022-10-28T02:33:09;101404.81;;;12.53;93.60
68107;BME280;54892;47.488;19.026;2022-10-28T02:36:16;101406.75;;;12.58;93.03
68107;BME280;54892;47.488;19.026;2022-10-28T02:39:25;101408.16;;;12.48;93.90
68107;BME280;54892;47.488;19.026;2022-10-28T02:42:32;101402.28;;;12.34;94.82
68107;BME280;54892;47.488;19.026;2022-10-28T02:45:38;101408.62;;;12.45;94.34
68107;BME280;54892;47.488;19.026;2022-10-28T02:48:44;101399.63;;;12.46;94.55
68107;BME280;54892;47.488;19.026;2022-10-28T02:51:53;101407.81;;;12.45;94.80
68107;BME280;54892;47.488;19.026;2022-10-28T02:54:59;101400.91;;;12.44;94.75
68107;BME280;54892;47.488;19.026;2022-10-28T02:58:06;101390.88;;;12.46;94.76
68107;BME280;54892;47.488;19.026;2022-10-28T03:01:09;101389.63;;;12.48;94.50
68107;BME280;54892;47.488;19.026;2022-10-28T03:04:13;101392.59;;;12.64;93.45
68107;BME280;54892;47.488;19.026;2022-10-28T03:07:17;101387.75;;;12.49;94.09
68107;BME280;54892;47.488;19.026;2022-10-28T03:10:21;101389.03;;;12.46;94.51
68107;BME280;54892;47.488;19.026;2022-10-28T03:13:25;101392.16;;;12.43;94.73
68107;BME280;54892;47.488;19.026;2022-10-28T03:16:28;101397.62;;;12.66;93.43
68107;BME280;54892;47.488;19.026;2022-10-28T03:19:31;101393.06;;;12.49;94.23
68107;BME280;54892;47.488;19.026;2022-10-28T03:22:36;101403.19;;;12.40;95.20
68107;BME280;54892;47.488;19.026;2022-10-28T03:25:39;101406.22;;;12.44;95.06
68107;BME280;54892;47.488;19.026;2022-10-28T03:28:43;101394.91;;;12.60;93.49
68107;BME280;54892;47.488;19.026;2022-10-28T03:31:47;101399.37;;;12.48;94.28
68107;BME280;54892;47.488;19.026;2022-10-28T03:34:51;101399.25;;;12.55;94.05
68107;BME280;54892;47.488;19.026;2022-10-28T03:37:55;101405.97;;;12.45;94.24
68107;BME280;54892;47.488;19.026;2022-10-28T03:40:59;101401.72;;;12.44;94.76
68107;BME280;54892;47.488;19.026;2022-10-28T03:44:02;101392.41;;;12.42;94.92
68107;BME280;54892;47.488;19.026;2022-10-28T03:47:07;101400.91;;;12.44;94.76
68107;BME280;54892;47.488;19.026;2022-10-28T03:50:10;101395.03;;;12.42;94.67
68107;BME280;54892;47.488;19.026;2022-10-28T03:53:15;101392.28;;;12.48;94.46
68107;BME280;54892;47.488;19.026;2022-10-28T03:56:19;101399.44;;;12.36;94.90
68107;BME280;54892;47.488;19.026;2022-10-28T03:59:22;101394.34;;;12.34;95.50
68107;BME280;54892;47.488;19.026;2022-10-28T04:02:26;101396.22;;;12.34;95.58
68107;BME280;54892;47.488;19.026;2022-10-28T04:05:29;101391.69;;;12.34;95.57
68107;BME280;54892;47.488;19.026;2022-10-28T04:08:34;101396.16;;;12.46;94.92
68107;BME280;54892;47.488;19.026;2022-10-28T04:11:37;101394.59;;;12.33;95.66
68107;BME280;54892;47.488;19.026;2022-10-28T04:14:41;101396.78;;;12.36;95.68
68107;BME280;54892;47.488;19.026;2022-10-28T04:17:45;101386.03;;;12.55;94.25
68107;BME280;54892;47.488;19.026;2022-10-28T04:20:48;101385.03;;;12.44;94.88
68107;BME280;54892;47.488;19.026;2022-10-28T04:23:53;101380.59;;;12.61;93.87
68107;BME280;54892;47.488;19.026;2022-10-28T04:26:56;101373.47;;;12.50;94.55
68107;BME280;54892;47.488;19.026;2022-10-28T04:30:00;101372.37;;;12.34;95.63
68107;BME280;54892;47.488;19.026;2022-10-28T04:33:03;101373.28;;;12.28;95.97
68107;BME280;54892;47.488;19.026;2022-10-28T04:36:07;101369.63;;;12.29;96.48
68107;BME280;54892;47.488;19.026;2022-10-28T04:39:12;101370.75;;;12.45;95.29
68107;BME280;54892;47.488;19.026;2022-10-28T04:42:16;101372.91;;;12.48;95.07
68107;BME280;54892;47.488;19.026;2022-10-28T04:45:19;101363.84;;;12.44;95.30
68107;BME280;54892;47.488;19.026;2022-10-28T04:48:23;101362.69;;;12.52;94.68
68107;BME280;54892;47.488;19.026;2022-10-28T04:51:26;101362.37;;;12.36;95.85
68107;BME280;54892;47.488;19.026;2022-10-28T04:54:32;101353.38;;;12.37;96.14
68107;BME280;54892;47.488;19.026;2022-10-28T04:57:35;101359.34;;;12.32;96.53
68107;BME280;54892;47.488;19.026;2022-10-28T05:00:38;101354.88;;;12.33;96.22
68107;BME280;54892;47.488;19.026;2022-10-28T05:03:41;101348.50;;;12.46;95.73
68107;BME280;54892;47.488;19.026;2022-10-28T05:06:45;101352.09;;;12.40;96.08
68107;BME280;54892;47.488;19.026;2022-10-28T05:09:49;101366.19;;;12.28;97.05
68107;BME280;54892;47.488;19.026;2022-10-28T05:12:53;101357.78;;;12.20;97.81
68107;BME280;54892;47.488;19.026;2022-10-28T05:15:57;101363.72;;;12.39;96.82
68107;BME280;54892;47.488;19.026;2022-10-28T05:19:00;101361.47;;;12.18;98.11
68107;BME280;54892;47.488;19.026;2022-10-28T05:22:03;101363.66;;;12.10;98.93
68107;BME280;54892;47.488;19.026;2022-10-28T05:25:08;101356.75;;;12.09;99.21
68107;BME280;54892;47.488;19.026;2022-10-28T05:28:12;101362.25;;;12.07;99.54
68107;BME280;54892;47.488;19.026;2022-10-28T05:31:16;101363.75;;;12.15;99.06
68107;BME280;54892;47.488;19.026;2022-10-28T05:34:19;101363.66;;;12.10;99.63
68107;BME280;54892;47.488;19.026;2022-10-28T05:37:23;101366.41;;;12.15;99.70
68107;BME280;54892;47.488;19.026;2022-10-28T05:40:27;101371.94;;;12.25;98.23
68107;BME280;54892;47.488;19.026;2022-10-28T05:43:30;101379.28;;;12.11;99.51
68107;BME280;54892;47.488;19.026;2022-10-28T05:46:34;101375.97;;;12.04;100.00
68107;BME280;54892;47.488;19.026;2022-10-28T05:49:37;101376.75;;;12.05;100.00
68107;BME280;54892;47.488;19.026;2022-10-28T05:52:44;101374.91;;;12.41;97.89
68107;BME280;54892;47.488;19.026;2022-10-28T05:55:49;101387.69;;;12.20;98.90
68107;BME280;54892;47.488;19.026;2022-10-28T05:58:52;101390.69;;;12.12;99.87
68107;BME280;54892;47.488;19.026;2022-10-28T06:01:55;101393.34;;;12.12;99.73
68107;BME280;54892;47.488;19.026;2022-10-28T06:04:59;101391.59;;;12.06;100.00
68107;BME280;54892;47.488;19.026;2022-10-28T06:08:04;101403.22;;;12.05;100.00
68107;BME280;54892;47.488;19.026;2022-10-28T06:11:08;101397.25;;;12.09;100.00
68107;BME280;54892;47.488;19.026;2022-10-28T06:14:12;101404.06;;;12.05;100.00
68107;BME280;54892;47.488;19.026;2022-10-28T06:17:15;101406.66;;;12.17;99.84
68107;BME280;54892;47.488;19.026;2022-10-28T06:20:19;101407.81;;;12.09;100.00
68107;BME280;54892;47.488;19.026;2022-10-28T06:23:23;101399.44;;;12.12;99.78
68107;BME280;54892;47.488;19.026;2022-10-28T06:26:28;101401.03;;;12.01;100.00
68107;BME280;54892;47.488;19.026;2022-10-28T06:29:31;101402.31;;;12.11;100.00
68107;BME280;54892;47.488;19.026;2022-10-28T06:32:35;101399.56;;;12.06;100.00
68107;BME280;54892;47.488;19.026;2022-10-28T06:35:38;101408.75;;;12.15;100.00
68107;BME280;54892;47.488;19.026;2022-10-28T06:38:41;101413.50;;;12.13;100.00
68107;BME280;54892;47.488;19.026;2022-10-28T06:41:47;101408.19;;;12.13;100.00
68107;BME280;54892;47.488;19.026;2022-10-28T06:44:50;101407.72;;;12.04;100.00
68107;BME280;54892;47.488;19.026;2022-10-28T06:47:55;101408.97;;;12.01;100.00
68107;BME280;54892;47.488;19.026;2022-10-28T06:50:59;101419.94;;;12.05;100.00
68107;BME280;54892;47.488;19.026;2022-10-28T06:54:03;101413.81;;;12.05;100.00
68107;BME280;54892;47.488;19.026;2022-10-28T06:57:07;101409.22;;;12.12;100.00
68107;BME280;54892;47.488;19.026;2022-10-28T07:00:12;101418.53;;;12.14;100.00
68107;BME280;54892;47.488;19.026;2022-10-28T07:03:16;101427.84;;;12.17;100.00
68107;BME280;54892;47.488;19.026;2022-10-28T07:06:20;101419.34;;;12.27;99.36
68107;BME280;54892;47.488;19.026;2022-10-28T07:09:23;101431.06;;;12.19;99.63
68107;BME280;54892;47.488;19.026;2022-10-28T07:12:28;101436.72;;;12.11;99.97
68107;BME280;54892;47.488;19.026;2022-10-28T07:15:31;101432.91;;;12.07;100.00
68107;BME280;54892;47.488;19.026;2022-10-28T07:18:34;101433.16;;;12.17;99.83
68107;BME280;54892;47.488;19.026;2022-10-28T07:21:38;101434.88;;;12.11;100.00
68107;BME280;54892;47.488;19.026;2022-10-28T07:24:41;101424.75;;;12.20;99.45
68107;BME280;54892;47.488;19.026;2022-10-28T07:27:45;101421.88;;;12.10;100.00
68107;BME280;54892;47.488;19.026;2022-10-28T07:30:49;101423.13;;;12.07;100.00
68107;BME280;54892;47.488;19.026;2022-10-28T07:33:56;101428.22;;;12.09;100.00
68107;BME280;54892;47.488;19.026;2022-10-28T07:36:59;101425.56;;;12.09;100.00
68107;BME280;54892;47.488;19.026;2022-10-28T07:40:03;101427.50;;;12.13;100.00
68107;BME280;54892;47.488;19.026;2022-10-28T07:43:08;101428.09;;;12.15;100.00
68107;BME280;54892;47.488;19.026;2022-10-28T07:46:12;101432.69;;;12.20;100.00
68107;BME280;54892;47.488;19.026;2022-10-28T07:49:16;101432.69;;;12.20;99.64
68107;BME280;54892;47.488;19.026;2022-10-28T07:52:19;101451.22;;;12.32;99.34
68107;BME280;54892;47.488;19.026;2022-10-28T07:55:23;101444.66;;;12.23;99.21
68107;BME280;54892;47.488;19.026;2022-10-28T07:58:28;101446.06;;;12.25;99.39
68107;BME280;54892;47.488;19.026;2022-10-28T08:01:32;101439.16;;;12.24;99.54
68107;BME280;54892;47.488;19.026;2022-10-28T08:04:35;101446.72;;;12.32;98.57
68107;BME280;54892;47.488;19.026;2022-10-28T08:07:38;101440.31;;;12.28;98.20
68107;BME280;54892;47.488;19.026;2022-10-28T08:10:42;101434.31;;;12.21;99.30
68107;BME280;54892;47.488;19.026;2022-10-28T08:13:47;101431.78;;;12.26;98.93
68107;BME280;54892;47.488;19.026;2022-10-28T08:16:50;101428.09;;;12.27;99.12
68107;BME280;54892;47.488;19.026;2022-10-28T08:19:54;101424.88;;;12.37;97.46
68107;BME280;54892;47.488;19.026;2022-10-28T08:22:58;101416.81;;;12.32;97.76
68107;BME280;54892;47.488;19.026;2022-10-28T08:26:02;101421.19;;;12.26;98.41
68107;BME280;54892;47.488;19.026;2022-10-28T08:29:08;101411.31;;;12.22;98.64
68107;BME280;54892;47.488;19.026;2022-10-28T08:32:13;101416.34;;;12.23;99.31
68107;BME280;54892;47.488;19.026;2022-10-28T08:35:16;101412.44;;;12.38;98.89
68107;BME280;54892;47.488;19.026;2022-10-28T08:38:20;101410.94;;;12.42;98.04
68107;BME280;54892;47.488;19.026;2022-10-28T08:41:30;101425.78;;;12.43;97.65
68107;BME280;54892;47.488;19.026;2022-10-28T08:44:50;101439.12;;;12.48;97.54
68107;BME280;54892;47.488;19.026;2022-10-28T08:48:07;101434.63;;;12.48;96.66
68107;BME280;54892;47.488;19.026;2022-10-28T08:51:16;101435.44;;;12.49;95.13
68107;BME280;54892;47.488;19.026;2022-10-28T08:54:23;101439.59;;;12.21;96.68
68107;BME280;54892;47.488;19.026;2022-10-28T08:57:35;101444.56;;;12.17;98.02
68107;BME280;54892;47.488;19.026;2022-10-28T09:00:50;101441.09;;;12.29;98.00
68107;BME280;54892;47.488;19.026;2022-10-28T09:03:55;101438.66;;;12.39;97.54
68107;BME280;54892;47.488;19.026;2022-10-28T09:07:00;101444.53;;;12.41;97.45
68107;BME280;54892;47.488;19.026;2022-10-28T09:10:04;101444.06;;;12.44;97.27
68107;BME280;54892;47.488;19.026;2022-10-28T09:13:17;101450.53;;;12.60;95.56
68107;BME280;54892;47.488;19.026;2022-10-28T09:16:35;101452.59;;;12.34;96.21
68107;BME280;54892;47.488;19.026;2022-10-28T09:19:46;101446.16;;;12.30;97.00
68107;BME280;54892;47.488;19.026;2022-10-28T09:22:55;101440.06;;;12.30;97.21
68107;BME280;54892;47.488;19.026;2022-10-28T09:26:06;101438.19;;;12.30;97.43
68107;BME280;54892;47.488;19.026;2022-10-28T09:29:23;101445.56;;;12.40;96.71
68107;BME280;54892;47.488;19.026;2022-10-28T09:32:38;101449.84;;;12.41;96.99
68107;BME280;54892;47.488;19.026;2022-10-28T09:35:46;101445.56;;;12.40;97.00
68107;BME280;54892;47.488;19.026;2022-10-28T09:38:52;101446.25;;;12.36;97.45
68107;BME280;54892;47.488;19.026;2022-10-28T09:41:58;101451.00;;;12.45;96.14
68107;BME280;54892;47.488;19.026;2022-10-28T09:45:04;101451.56;;;12.36;97.00
68107;BME280;54892;47.488;19.026;2022-10-28T09:48:15;101432.44;;;12.33;96.91
68107;BME280;54892;47.488;19.026;2022-10-28T09:51:28;101432.12;;;12.42;96.35
68107;BME280;54892;47.488;19.026;2022-10-28T09:54:35;101443.28;;;12.44;96.95
68107;BME280;54892;47.488;19.026;2022-10-28T09:57:40;101443.13;;;12.62;95.09
68107;BME280;54892;47.488;19.026;2022-10-28T10:00:45;101451.31;;;12.49;95.80
68107;BME280;54892;47.488;19.026;2022-10-28T10:03:50;101450.41;;;12.55;95.36
68107;BME280;54892;47.488;19.026;2022-10-28T10:06:57;101439.34;;;12.58;94.68
68107;BME280;54892;47.488;19.026;2022-10-28T10:10:05;101448.22;;;12.52;95.32
68107;BME280;54892;47.488;19.026;2022-10-28T10:13:15;101439.69;;;12.50;95.54
68107;BME280;54892;47.488;19.026;2022-10-28T10:16:23;101442.91;;;12.52;95.50
68107;BME280;54892;47.488;19.026;2022-10-28T10:19:56;101446.72;;;12.56;94.92
68107;BME280;54892;47.488;19.026;2022-10-28T10:23:01;101442.22;;;12.57;94.90
68107;BME280;54892;47.488;19.026;2022-10-28T10:26:23;101442.00;;;12.46;95.35
68107;BME280;54892;47.488;19.026;2022-10-28T10:29:27;101447.37;;;12.63;94.28
68107;BME280;54892;47.488;19.026;2022-10-28T10:32:31;101445.31;;;12.54;94.39
68107;BME280;54892;47.488;19.026;2022-10-28T10:35:37;101446.28;;;12.47;95.08
68107;BME280;54892;47.488;19.026;2022-10-28T10:38:46;101443.03;;;12.57;94.88
68107;BME280;54892;47.488;19.026;2022-10-28T10:41:50;101437.37;;;12.66;94.87
68107;BME280;54892;47.488;19.026;2022-10-28T10:45:01;101438.28;;;12.71;94.49
68107;BME280;54892;47.488;19.026;2022-10-28T10:48:09;101440.56;;;12.79;93.79
68107;BME280;54892;47.488;19.026;2022-10-28T10:51:21;101444.72;;;12.87;92.43
68107;BME280;54892;47.488;19.026;2022-10-28T10:54:25;101431.81;;;12.79;93.29
68107;BME280;54892;47.488;19.026;2022-10-28T10:57:30;101432.63;;;12.79;93.47
68107;BME280;54892;47.488;19.026;2022-10-28T11:00:35;101425.25;;;12.82;92.57
68107;BME280;54892;47.488;19.026;2022-10-28T11:03:47;101422.03;;;12.79;92.71
68107;BME280;54892;47.488;19.026;2022-10-28T11:06:54;101419.59;;;12.78;92.53
68107;BME280;54892;47.488;19.026;2022-10-28T11:09:58;101420.41;;;12.78;93.25
68107;BME280;54892;47.488;19.026;2022-10-28T11:13:04;101421.91;;;12.74;92.68
68107;BME280;54892;47.488;19.026;2022-10-28T11:16:18;101421.06;;;12.86;91.92
68107;BME280;54892;47.488;19.026;2022-10-28T11:19:23;101422.50;;;12.64;93.10
68107;BME280;54892;47.488;19.026;2022-10-28T11:22:37;101427.09;;;12.69;93.04
68107;BME280;54892;47.488;19.026;2022-10-28T11:25:45;101419.41;;;12.68;93.13
68107;BME280;54892;47.488;19.026;2022-10-28T11:29:04;101425.28;;;12.58;94.11
68107;BME280;54892;47.488;19.026;2022-10-28T11:32:18;101422.31;;;12.54;94.08
68107;BME280;54892;47.488;19.026;2022-10-28T11:35:37;101418.97;;;12.59;94.10
68107;BME280;54892;47.488;19.026;2022-10-28T11:39:09;101414.69;;;12.70;92.53
68107;BME280;54892;47.488;19.026;2022-10-28T11:42:26;101413.44;;;12.60;93.82
68107;BME280;54892;47.488;19.026;2022-10-28T11:45:36;101413.44;;;12.60;94.62
68107;BME280;54892;47.488;19.026;2022-10-28T11:48:57;101408.91;;;12.73;94.19
68107;BME280;54892;47.488;19.026;2022-10-28T11:52:13;101404.75;;;12.77;93.84
68107;BME280;54892;47.488;19.026;2022-10-28T11:55:29;101397.22;;;12.86;93.33
68107;BME280;54892;47.488;19.026;2022-10-28T11:58:41;101395.59;;;12.97;92.97
68107;BME280;54892;47.488;19.026;2022-10-28T12:01:52;101397.75;;;13.00;92.13
68107;BME280;54892;47.488;19.026;2022-10-28T12:05:02;101394.69;;;12.91;92.69
68107;BME280;54892;47.488;19.026;2022-10-28T12:08:25;101391.94;;;12.86;92.63
68107;BME280;54892;47.488;19.026;2022-10-28T12:11:42;101392.19;;;12.84;92.86
68107;BME280;54892;47.488;19.026;2022-10-28T12:14:54;101379.19;;;12.83;93.17
68107;BME280;54892;47.488;19.026;2022-10-28T12:18:09;101378.78;;;12.91;92.57
68107;BME280;54892;47.488;19.026;2022-10-28T12:21:21;101377.31;;;12.83;93.54
68107;BME280;54892;47.488;19.026;2022-10-28T12:24:28;101379.03;;;12.89;92.81
68107;BME280;54892;47.488;19.026;2022-10-28T12:27:37;101372.59;;;12.85;93.51
68107;BME280;54892;47.488;19.026;2022-10-28T12:30:45;101372.72;;;12.78;93.51
68107;BME280;54892;47.488;19.026;2022-10-28T12:33:52;101367.75;;;12.82;93.03
68107;BME280;54892;47.488;19.026;2022-10-28T12:36:59;101366.84;;;12.76;93.67
68107;BME280;54892;47.488;19.026;2022-10-28T12:40:10;101354.50;;;12.82;93.42
68107;BME280;54892;47.488;19.026;2022-10-28T12:43:20;101360.62;;;12.83;93.19
68107;BME280;54892;47.488;19.026;2022-10-28T12:46:32;101351.50;;;12.90;92.88
68107;BME280;54892;47.488;19.026;2022-10-28T12:49:49;101352.03;;;12.92;92.75
68107;BME280;54892;47.488;19.026;2022-10-28T12:52:56;101357.31;;;12.75;94.22
68107;BME280;54892;47.488;19.026;2022-10-28T12:56:02;101360.28;;;12.79;94.30
68107;BME280;54892;47.488;19.026;2022-10-28T12:59:10;101356.84;;;12.78;94.47
68107;BME280;54892;47.488;19.026;2022-10-28T13:02:18;101359.34;;;12.85;94.09
68107;BME280;54892;47.488;19.026;2022-10-28T13:05:25;101343.34;;;12.80;94.02
68107;BME280;54892;47.488;19.026;2022-10-28T13:08:51;101340.25;;;13.00;92.58
68107;BME280;54892;47.488;19.026;2022-10-28T13:12:32;101333.31;;;12.82;93.34
68107;BME280;54892;47.488;19.026;2022-10-28T13:15:49;101343.62;;;12.67;94.96
68107;BME280;54892;47.488;19.026;2022-10-28T13:19:09;101332.75;;;12.80;94.24
68107;BME280;54892;47.488;19.026;2022-10-28T13:22:30;101335.53;;;12.73;94.77
68107;BME280;54892;47.488;19.026;2022-10-28T13:25:45;101346.38;;;12.72;95.09
68107;BME280;54892;47.488;19.026;2022-10-28T13:28:55;101347.53;;;12.76;95.12
68107;BME280;54892;47.488;19.026;2022-10-28T13:32:00;101341.50;;;12.81;94.96
68107;BME280;54892;47.488;19.026;2022-10-28T13:35:11;101341.50;;;12.81;94.80
68107;BME280;54892;47.488;19.026;2022-10-28T13:38:20;101343.91;;;12.82;94.89
68107;BME280;54892;47.488;19.026;2022-10-28T13:41:28;101346.94;;;12.74;94.92
68107;BME280;54892;47.488;19.026;2022-10-28T13:44:46;101339.59;;;12.93;93.87
68107;BME280;54892;47.488;19.026;2022-10-28T13:47:51;101344.06;;;12.75;95.13
68107;BME280;54892;47.488;19.026;2022-10-28T13:51:28;101337.84;;;12.70;95.78
68107;BME280;54892;47.488;19.026;2022-10-28T13:54:34;101338.19;;;12.73;95.59
68107;BME280;54892;47.488;19.026;2022-10-28T13:57:59;101328.00;;;12.82;94.79
68107;BME280;54892;47.488;19.026;2022-10-28T14:01:46;101336.00;;;12.70;95.90
68107;BME280;54892;47.488;19.026;2022-10-28T14:04:57;101340.62;;;12.75;96.00
68107;BME280;54892;47.488;19.026;2022-10-28T14:08:02;101343.72;;;12.72;96.16
68107;BME280;54892;47.488;19.026;2022-10-28T14:11:08;101349.59;;;12.74;96.28
68107;BME280;54892;47.488;19.026;2022-10-28T14:14:15;101360.28;;;12.79;96.22
68107;BME280;54892;47.488;19.026;2022-10-28T14:17:19;101344.38;;;12.79;95.84
68107;BME280;54892;47.488;19.026;2022-10-28T14:20:29;101341.41;;;12.75;95.96
68107;BME280;54892;47.488;19.026;2022-10-28T14:24:06;101348.19;;;12.71;96.72
68107;BME280;54892;47.488;19.026;2022-10-28T14:27:24;101351.09;;;12.70;97.04
68107;BME280;54892;47.488;19.026;2022-10-28T14:30:28;101350.62;;;12.73;96.95
68107;BME280;54892;47.488;19.026;2022-10-28T14:33:32;101339.94;;;12.68;97.44
68107;BME280;54892;47.488;19.026;2022-10-28T14:36:41;101328.87;;;12.71;97.34
68107;BME280;54892;47.488;19.026;2022-10-28T14:40:00;101333.34;;;12.70;97.65
68107;BME280;54892;47.488;19.026;2022-10-28T14:43:49;101335.84;;;12.77;97.36
68107;BME280;54892;47.488;19.026;2022-10-28T14:47:06;101336.72;;;12.66;97.71
68107;BME280;54892;47.488;19.026;2022-10-28T14:50:15;101340.66;;;12.63;98.32
68107;BME280;54892;47.488;19.026;2022-10-28T14:53:24;101341.69;;;12.62;98.56
68107;BME280;54892;47.488;19.026;2022-10-28T14:56:30;101342.00;;;12.66;98.69
68107;BME280;54892;47.488;19.026;2022-10-28T14:59:36;101343.41;;;12.68;98.65
68107;BME280;54892;47.488;19.026;2022-10-28T15:02:41;101338.91;;;12.69;98.32
68107;BME280;54892;47.488;19.026;2022-10-28T15:05:44;101329.09;;;12.69;98.37
68107;BME280;54892;47.488;19.026;2022-10-28T15:08:49;101329.91;;;12.70;98.54
68107;BME280;54892;47.488;19.026;2022-10-28T15:11:55;101328.84;;;12.83;97.50
68107;BME280;54892;47.488;19.026;2022-10-28T15:15:00;101329.34;;;12.68;98.49
68107;BME280;54892;47.488;19.026;2022-10-28T15:18:20;101334.38;;;12.69;98.38
68107;BME280;54892;47.488;19.026;2022-10-28T15:21:23;101316.09;;;12.68;98.72
68107;BME280;54892;47.488;19.026;2022-10-28T15:24:28;101303.59;;;12.80;97.72
68107;BME280;54892;47.488;19.026;2022-10-28T15:27:32;101309.44;;;12.65;98.91
68107;BME280;54892;47.488;19.026;2022-10-28T15:30:37;101309.19;;;12.67;99.21
68107;BME280;54892;47.488;19.026;2022-10-28T15:33:44;101307.09;;;12.69;98.47
68107;BME280;54892;47.488;19.026;2022-10-28T15:36:47;101302.28;;;12.66;98.40
68107;BME280;54892;47.488;19.026;2022-10-28T15:40:10;101303.09;;;12.66;98.27
68107;BME280;54892;47.488;19.026;2022-10-28T15:43:17;101300.19;;;12.68;98.31
68107;BME280;54892;47.488;19.026;2022-10-28T15:46:22;101299.06;;;12.63;98.72
68107;BME280;54892;47.488;19.026;2022-10-28T15:49:34;101296.19;;;12.65;98.91
68107;BME280;54892;47.488;19.026;2022-10-28T15:52:39;101298.59;;;12.67;98.92
68107;BME280;54892;47.488;19.026;2022-10-28T15:55:44;101298.13;;;12.70;98.94
68107;BME280;54892;47.488;19.026;2022-10-28T15:59:09;101293.28;;;12.67;99.40
68107;BME280;54892;47.488;19.026;2022-10-28T16:02:38;101300.19;;;12.68;99.67
68107;BME280;54892;47.488;19.026;2022-10-28T16:05:46;101301.25;;;12.67;100.00
68107;BME280;54892;47.488;19.026;2022-10-28T16:08:58;101301.81;;;12.69;100.00
68107;BME280;54892;47.488;19.026;2022-10-28T16:12:16;101308.72;;;12.70;100.00